createdAt,value
2023-08-03T00:00:27.816Z,5.3
2023-08-03T00:01:36.339Z,5.7
2023-08-03T00:02:44.741Z,5.7
2023-08-03T00:03:53.041Z,5.7
2023-08-03T00:05:01.521Z,4.8
2023-08-03T00:06:09.883Z,4.8
2023-08-03T00:07:18.199Z,4.8
2023-08-03T00:08:26.729Z,5.3
2023-08-03T00:09:35.055Z,5.3
2023-08-03T00:10:43.382Z,5.3
2023-08-03T00:11:51.909Z,5.5
2023-08-03T00:13:00.247Z,5.5
2023-08-03T00:14:08.585Z,5.5
2023-08-03T00:15:17.109Z,7.6
2023-08-03T00:16:25.466Z,7.6
2023-08-03T00:17:33.790Z,7.6
2023-08-03T00:18:42.311Z,3.5
2023-08-03T00:19:50.652Z,3.5
2023-08-03T00:20:58.984Z,3.5
2023-08-03T00:22:07.504Z,6.1
2023-08-03T00:23:15.832Z,6.1
2023-08-03T00:24:24.149Z,6.1
2023-08-03T00:25:32.676Z,4.4
2023-08-03T00:26:40.999Z,4.4
2023-08-03T00:27:49.323Z,4.4
2023-08-03T00:28:57.854Z,5.9
2023-08-03T00:30:06.184Z,5.9
2023-08-03T00:31:14.516Z,5.9
2023-08-03T00:32:23.085Z,5.3
2023-08-03T00:33:31.347Z,5.3
2023-08-03T00:34:39.676Z,5.3
2023-08-03T00:35:48.239Z,5.6
2023-08-03T00:36:56.541Z,5.6
2023-08-03T00:38:04.868Z,5.6
2023-08-03T00:39:13.402Z,5
2023-08-03T00:40:21.727Z,5
2023-08-03T00:41:30.051Z,5
2023-08-03T00:42:38.577Z,4.5
2023-08-03T00:43:46.903Z,4.5
2023-08-03T00:44:55.214Z,4.5
2023-08-03T00:46:03.755Z,5.4
2023-08-03T00:47:12.092Z,5.4
2023-08-03T00:48:20.467Z,5.4
2023-08-03T00:49:28.969Z,7.1
2023-08-03T00:50:37.274Z,7.1
2023-08-03T00:51:45.790Z,7.1
2023-08-03T00:52:54.140Z,4.2
2023-08-03T00:54:02.467Z,4.2
2023-08-03T00:55:10.813Z,4.2
2023-08-03T00:56:19.344Z,7.3
2023-08-03T00:57:27.690Z,7.3
2023-08-03T00:58:36.006Z,7.3
2023-08-03T00:59:44.540Z,6.8
2023-08-03T01:00:52.896Z,6.8
2023-08-03T01:02:01.234Z,6.8
2023-08-03T01:03:09.807Z,3.6
2023-08-03T01:04:18.129Z,3.6
2023-08-03T01:05:26.428Z,3.6
2023-08-03T01:06:34.989Z,10.4
2023-08-03T01:07:43.313Z,10.4
2023-08-03T01:08:51.628Z,10.4
2023-08-03T01:10:00.188Z,8.1
2023-08-03T01:11:08.502Z,8.1
2023-08-03T01:12:16.835Z,8.1
2023-08-03T01:13:25.365Z,9.5
2023-08-03T01:14:33.700Z,9.5
2023-08-03T01:15:42.024Z,9.5
2023-08-03T01:16:50.589Z,5.5
2023-08-03T01:17:58.902Z,5.5
2023-08-03T01:19:07.206Z,5.5
2023-08-03T01:20:15.771Z,3.7
2023-08-03T01:21:24.075Z,3.7
2023-08-03T01:22:32.399Z,3.7
2023-08-03T01:23:40.939Z,8.8
2023-08-03T01:24:49.271Z,8.8
2023-08-03T01:25:57.607Z,8.8
2023-08-03T01:27:06.138Z,5.5
2023-08-03T01:28:14.465Z,5.5
2023-08-03T01:29:22.783Z,5.5
2023-08-03T01:30:31.343Z,7.2
2023-08-03T01:31:39.662Z,7.2
2023-08-03T01:32:48.003Z,7.2
2023-08-03T01:33:56.497Z,7
2023-08-03T01:35:04.851Z,7
2023-08-03T01:36:13.189Z,7
2023-08-03T01:37:21.691Z,5.8
2023-08-03T01:38:30.035Z,5.8
2023-08-03T01:39:38.348Z,5.8
2023-08-03T01:40:46.956Z,8.9
2023-08-03T01:41:55.290Z,8.9
2023-08-03T01:43:03.602Z,8.9
2023-08-03T01:44:12.148Z,5.9
2023-08-03T01:45:20.486Z,5.9
2023-08-03T01:46:28.862Z,5.9
2023-08-03T01:47:37.404Z,7.3
2023-08-03T01:48:45.698Z,7.3
2023-08-03T01:49:54.020Z,7.3
2023-08-03T01:51:02.551Z,6.7
2023-08-03T01:52:10.896Z,6.7
2023-08-03T01:53:19.214Z,6.7
2023-08-03T01:54:27.735Z,8.2
2023-08-03T01:55:36.053Z,8.2
2023-08-03T01:56:44.369Z,8.2
2023-08-03T01:57:52.929Z,7.3
2023-08-03T01:59:01.251Z,7.3
2023-08-03T02:00:09.573Z,7.3
2023-08-03T02:01:18.106Z,5.8
2023-08-03T02:02:26.476Z,5.8
2023-08-03T02:03:34.770Z,5.8
2023-08-03T02:04:43.339Z,5.3
2023-08-03T02:05:51.630Z,5.3
2023-08-03T02:06:59.968Z,5.3
2023-08-03T02:08:08.519Z,6.2
2023-08-03T02:09:16.834Z,6.2
2023-08-03T02:10:25.215Z,6.2
2023-08-03T02:11:33.682Z,6.4
2023-08-03T02:12:42.001Z,6.4
2023-08-03T02:13:50.354Z,6.4
2023-08-03T02:14:58.879Z,7.6
2023-08-03T02:16:15.037Z,7.6
2023-08-03T02:17:15.526Z,7.6
2023-08-03T02:18:24.089Z,4.6
2023-08-03T02:19:32.424Z,4.6
2023-08-03T02:20:40.757Z,4.6
2023-08-03T02:21:49.301Z,4.8
2023-08-03T02:22:57.637Z,4.8
2023-08-03T02:24:05.982Z,4.8
2023-08-03T02:25:14.501Z,4.7
2023-08-03T02:26:22.837Z,4.7
2023-08-03T02:27:31.166Z,4.7
2023-08-03T02:28:39.716Z,6.2
2023-08-03T02:29:48.037Z,6.2
2023-08-03T02:30:56.382Z,6.2
2023-08-03T02:32:04.897Z,5.2
2023-08-03T02:33:13.251Z,5.2
2023-08-03T02:34:21.583Z,5.2
2023-08-03T02:35:30.120Z,10.5
2023-08-03T02:36:38.495Z,10.5
2023-08-03T02:37:46.813Z,10.5
2023-08-03T02:38:55.365Z,9.6
2023-08-03T02:40:03.733Z,9.6
2023-08-03T02:41:12.029Z,9.6
2023-08-03T02:42:20.596Z,5.3
2023-08-03T02:43:29.017Z,5.3
2023-08-03T02:44:37.236Z,5.3
2023-08-03T02:45:45.806Z,7.8
2023-08-03T02:46:54.111Z,7.8
2023-08-03T02:48:02.447Z,7.8
2023-08-03T02:49:10.971Z,5.5
2023-08-03T02:50:19.297Z,5.5
2023-08-03T02:51:27.624Z,5.5
2023-08-03T02:52:36.152Z,7.2
2023-08-03T02:53:44.493Z,7.2
2023-08-03T02:54:52.811Z,7.2
2023-08-03T02:56:01.427Z,6.5
2023-08-03T02:57:09.659Z,6.5
2023-08-03T02:58:17.993Z,6.5
2023-08-03T02:59:26.553Z,6.7
2023-08-03T03:00:36.885Z,6.7
2023-08-03T03:01:45.441Z,6.7
2023-08-03T03:02:53.871Z,5.4
2023-08-03T03:04:02.128Z,5.4
2023-08-03T03:05:10.457Z,5.4
2023-08-03T03:06:19.034Z,6.2
2023-08-03T03:07:27.314Z,6.2
2023-08-03T03:08:35.689Z,6.2
2023-08-03T03:09:44.171Z,5
2023-08-03T03:10:52.524Z,5
2023-08-03T03:12:00.889Z,5
2023-08-03T03:13:09.386Z,5.5
2023-08-03T03:14:17.708Z,5.5
2023-08-03T03:15:26.032Z,5.5
2023-08-03T03:16:34.571Z,7.1
2023-08-03T03:17:42.933Z,7.1
2023-08-03T03:18:51.224Z,7.1
2023-08-03T03:19:59.750Z,8.1
2023-08-03T03:21:08.104Z,8.1
2023-08-03T03:22:16.424Z,8.1
2023-08-03T03:23:24.942Z,6.4
2023-08-03T03:24:33.258Z,6.4
2023-08-03T03:25:41.598Z,6.4
2023-08-03T03:26:50.136Z,7.7
2023-08-03T03:27:58.482Z,7.7
2023-08-03T03:29:06.799Z,7.7
2023-08-03T03:30:15.346Z,8.5
2023-08-03T03:31:23.802Z,8.5
2023-08-03T03:32:32.178Z,8.5
2023-08-03T03:33:40.654Z,8.4
2023-08-03T03:34:48.997Z,8.4
2023-08-03T03:35:57.325Z,8.4
2023-08-03T03:37:05.858Z,6.3
2023-08-03T03:38:14.198Z,6.3
2023-08-03T03:39:22.532Z,6.3
2023-08-03T03:40:31.072Z,6
2023-08-03T03:41:39.400Z,6
2023-08-03T03:42:47.718Z,6
2023-08-03T03:43:56.264Z,8.7
2023-08-03T03:45:04.578Z,8.7
2023-08-03T03:46:12.926Z,8.7
2023-08-03T03:47:21.436Z,6.3
2023-08-03T03:48:29.777Z,6.3
2023-08-03T03:49:38.121Z,6.3
2023-08-03T03:50:46.604Z,5.4
2023-08-03T03:51:54.915Z,5.4
2023-08-03T03:53:03.237Z,5.4
2023-08-03T03:54:11.773Z,5.8
2023-08-03T03:55:20.094Z,5.8
2023-08-03T03:56:28.435Z,5.8
2023-08-03T03:57:36.965Z,6.5
2023-08-03T03:58:45.309Z,6.5
2023-08-03T03:59:53.646Z,6.5
2023-08-03T04:01:02.175Z,4.7
2023-08-03T04:02:10.471Z,4.7
2023-08-03T04:03:18.870Z,4.7
2023-08-03T04:04:28.262Z,4.6
2023-08-03T04:05:35.672Z,4.6
2023-08-03T04:06:44.083Z,4.6
2023-08-03T04:07:52.530Z,5.1
2023-08-03T04:09:00.853Z,5.1
2023-08-03T04:10:09.186Z,5.1
2023-08-03T04:11:17.711Z,7.1
2023-08-03T04:12:26.047Z,7.1
2023-08-03T04:13:34.385Z,7.1
2023-08-03T04:14:42.910Z,7
2023-08-03T04:15:51.303Z,7
2023-08-03T04:16:59.570Z,7
2023-08-03T04:18:08.162Z,7
2023-08-03T04:19:16.430Z,7
2023-08-03T04:20:24.754Z,7
2023-08-03T04:21:33.319Z,9.3
2023-08-03T04:22:41.646Z,9.3
2023-08-03T04:23:49.968Z,9.3
2023-08-03T04:24:58.518Z,5.6
2023-08-03T04:26:06.883Z,5.6
2023-08-03T04:27:15.230Z,5.6
2023-08-03T04:28:23.781Z,5.2
2023-08-03T04:29:32.091Z,5.2
2023-08-03T04:30:40.426Z,5.2
2023-08-03T04:31:48.997Z,6.7
2023-08-03T04:32:57.320Z,6.7
2023-08-03T04:34:05.621Z,6.7
2023-08-03T04:35:14.144Z,8.4
2023-08-03T04:36:22.487Z,8.4
2023-08-03T04:37:30.818Z,8.4
2023-08-03T04:38:39.343Z,5.3
2023-08-03T04:39:47.664Z,5.3
2023-08-03T04:40:56.003Z,5.3
2023-08-03T04:42:04.560Z,6.3
2023-08-03T04:43:12.869Z,6.3
2023-08-03T04:44:21.194Z,6.3
2023-08-03T04:45:29.741Z,5.1
2023-08-03T04:46:38.110Z,5.1
2023-08-03T04:47:46.437Z,5.1
2023-08-03T04:48:54.923Z,5.2
2023-08-03T04:50:03.256Z,5.2
2023-08-03T04:51:11.579Z,5.2
2023-08-03T04:52:20.108Z,6
2023-08-03T04:53:28.424Z,6
2023-08-03T04:54:36.771Z,6
2023-08-03T04:55:45.290Z,4.6
2023-08-03T04:56:53.955Z,4.6
2023-08-03T04:58:01.938Z,4.6
2023-08-03T04:59:10.480Z,6.3
2023-08-03T05:00:20.662Z,6.3
2023-08-03T05:01:27.203Z,6.3
2023-08-03T05:02:35.655Z,4.8
2023-08-03T05:03:44.021Z,4.8
2023-08-03T05:04:52.294Z,4.8
2023-08-03T05:06:01.298Z,5.3
2023-08-03T05:07:09.159Z,5.3
2023-08-03T05:08:17.472Z,5.3
2023-08-03T05:09:26.000Z,6.1
2023-08-03T05:10:34.326Z,6.1
2023-08-03T05:11:42.861Z,6.1
2023-08-03T05:12:51.184Z,6.8
2023-08-03T05:13:59.525Z,6.8
2023-08-03T05:15:07.848Z,6.8
2023-08-03T05:16:16.401Z,3.8
2023-08-03T05:17:24.734Z,3.8
2023-08-03T05:18:33.052Z,3.8
2023-08-03T05:19:41.675Z,6.3
2023-08-03T05:20:49.907Z,6.3
2023-08-03T05:21:58.250Z,6.3
2023-08-03T05:23:06.779Z,5.8
2023-08-03T05:24:15.098Z,5.8
2023-08-03T05:25:23.413Z,5.8
2023-08-03T05:26:31.954Z,5
2023-08-03T05:27:40.295Z,5
2023-08-03T05:28:48.641Z,5
2023-08-03T05:29:57.182Z,5.1
2023-08-03T05:31:05.566Z,5.1
2023-08-03T05:32:13.868Z,5.1
2023-08-03T05:33:22.425Z,4.3
2023-08-03T05:34:30.751Z,4.3
2023-08-03T05:35:39.112Z,4.3
2023-08-03T05:36:47.628Z,4.4
2023-08-03T05:37:55.972Z,4.4
2023-08-03T05:39:04.298Z,4.4
2023-08-03T05:40:12.838Z,9.3
2023-08-03T05:41:21.189Z,9.3
2023-08-03T05:42:29.526Z,9.3
2023-08-03T05:43:38.061Z,23.200001
2023-08-03T05:44:46.394Z,23.200001
2023-08-03T05:45:54.735Z,23.200001
2023-08-03T05:47:03.264Z,6.6
2023-08-03T05:48:11.570Z,6.6
2023-08-03T05:49:19.909Z,6.6
2023-08-03T05:50:28.448Z,6.2
2023-08-03T05:51:36.803Z,6.2
2023-08-03T05:52:45.102Z,6.2
2023-08-03T05:53:53.665Z,4.3
2023-08-03T05:55:01.995Z,4.3
2023-08-03T05:56:12.504Z,4.3
2023-08-03T05:57:18.881Z,5.4
2023-08-03T05:58:27.200Z,5.4
2023-08-03T05:59:35.533Z,5.4
2023-08-03T06:00:44.063Z,6.3
2023-08-03T06:01:52.405Z,6.3
2023-08-03T06:03:01.930Z,6.3
2023-08-03T06:04:09.269Z,5
2023-08-03T06:05:17.575Z,5
2023-08-03T06:06:26.032Z,5
2023-08-03T06:07:34.492Z,4.2
2023-08-03T06:08:42.804Z,4.2
2023-08-03T06:09:51.123Z,4.2
2023-08-03T06:10:59.662Z,3.2
2023-08-03T06:12:07.985Z,3.2
2023-08-03T06:13:16.302Z,3.2
2023-08-03T06:14:24.832Z,2.7
2023-08-03T06:15:33.166Z,2.7
2023-08-03T06:16:41.531Z,2.7
2023-08-03T06:17:50.040Z,5.6
2023-08-03T06:18:58.337Z,5.6
2023-08-03T06:20:06.680Z,5.6
2023-08-03T06:21:15.216Z,2.8
2023-08-03T06:22:23.563Z,2.8
2023-08-03T06:23:31.918Z,2.8
2023-08-03T06:24:40.418Z,4.8
2023-08-03T06:25:48.754Z,4.8
2023-08-03T06:26:57.074Z,4.8
2023-08-03T06:28:05.607Z,5.8
2023-08-03T06:29:13.940Z,5.8
2023-08-03T06:30:22.266Z,5.8
2023-08-03T06:31:30.881Z,2.8
2023-08-03T06:32:39.196Z,2.8
2023-08-03T06:33:47.477Z,2.8
2023-08-03T06:34:56.009Z,3.3
2023-08-03T06:36:04.364Z,3.3
2023-08-03T06:37:12.711Z,3.3
2023-08-03T06:38:21.257Z,16.700001
2023-08-03T06:39:29.611Z,16.700001
2023-08-03T06:40:37.910Z,16.700001
2023-08-03T06:41:46.729Z,6.3
2023-08-03T06:42:54.796Z,6.3
2023-08-03T06:44:03.154Z,6.3
2023-08-03T06:45:11.698Z,3
2023-08-03T06:46:20.150Z,3
2023-08-03T06:47:28.470Z,3
2023-08-03T06:48:37.056Z,3.7
2023-08-03T06:49:45.391Z,3.7
2023-08-03T06:50:53.743Z,3.7
2023-08-03T06:52:02.278Z,3.2
2023-08-03T06:53:10.619Z,3.2
2023-08-03T06:54:18.954Z,3.2
2023-08-03T06:55:27.532Z,2.5
2023-08-03T06:56:35.839Z,2.5
2023-08-03T06:57:44.169Z,2.5
2023-08-03T06:58:52.734Z,6.2
2023-08-03T07:00:01.109Z,6.2
2023-08-03T07:01:09.422Z,6.2
2023-08-03T07:02:17.961Z,4.6
2023-08-03T07:03:26.298Z,4.6
2023-08-03T07:04:34.610Z,4.6
2023-08-03T07:05:43.140Z,5.9
2023-08-03T07:06:51.524Z,5.9
2023-08-03T07:07:59.791Z,5.9
2023-08-03T07:09:08.348Z,2.6
2023-08-03T07:10:16.674Z,2.6
2023-08-03T07:11:25.053Z,2.6
2023-08-03T07:12:33.555Z,2.9
2023-08-03T07:13:41.881Z,2.9
2023-08-03T07:14:50.228Z,2.9
2023-08-03T07:15:58.799Z,3
2023-08-03T07:17:07.092Z,3
2023-08-03T07:18:15.526Z,3
2023-08-03T07:19:23.979Z,4.2
2023-08-03T07:20:32.303Z,4.2
2023-08-03T07:21:40.657Z,4.2
2023-08-03T07:22:49.201Z,3.2
2023-08-03T07:23:57.525Z,3.2
2023-08-03T07:25:05.864Z,3.2
2023-08-03T07:26:14.403Z,4.5
2023-08-03T07:27:22.761Z,4.5
2023-08-03T07:28:31.068Z,4.5
2023-08-03T07:29:39.599Z,2.7
2023-08-03T07:30:47.953Z,2.7
2023-08-03T07:31:56.324Z,2.7
2023-08-03T07:33:04.854Z,2.8
2023-08-03T07:34:13.135Z,2.8
2023-08-03T07:35:21.460Z,2.8
2023-08-03T07:36:30.043Z,3
2023-08-03T07:37:38.422Z,3
2023-08-03T07:38:46.704Z,3
2023-08-03T07:39:55.272Z,2.8
2023-08-03T07:41:03.606Z,2.8
2023-08-03T07:42:11.943Z,2.8
2023-08-03T07:43:20.560Z,2.7
2023-08-03T07:44:49.017Z,2.7
2023-08-03T07:46:46.174Z,3.1
2023-08-03T07:47:54.036Z,3.1
2023-08-03T07:49:02.353Z,3.1
2023-08-03T07:50:10.896Z,3.3
2023-08-03T07:51:21.567Z,3.3
2023-08-03T07:52:27.522Z,3.3
2023-08-03T07:53:36.057Z,2
2023-08-03T07:54:44.390Z,2
2023-08-03T07:55:52.730Z,2
2023-08-03T07:57:01.257Z,2.4
2023-08-03T07:58:09.577Z,2.4
2023-08-03T07:59:17.948Z,2.4
2023-08-03T08:00:26.501Z,2.2
2023-08-03T08:01:34.823Z,2.2
2023-08-03T08:02:43.169Z,2.2
2023-08-03T08:03:51.685Z,2
2023-08-03T08:05:00.033Z,2
2023-08-03T08:06:09.732Z,2
2023-08-03T08:07:16.887Z,1.9
2023-08-03T08:08:25.235Z,1.9
2023-08-03T08:09:33.557Z,1.9
2023-08-03T08:10:42.116Z,3.4
2023-08-03T08:11:50.425Z,3.4
2023-08-03T08:12:58.716Z,3.4
2023-08-03T08:14:07.242Z,1.9
2023-08-03T08:15:15.666Z,1.9
2023-08-03T08:16:23.940Z,1.9
2023-08-03T08:17:32.475Z,2.4
2023-08-03T08:18:40.921Z,2.4
2023-08-03T08:19:49.105Z,2.4
2023-08-03T08:20:57.667Z,2.4
2023-08-03T08:22:15.360Z,2.4
2023-08-03T08:23:14.345Z,2.4
2023-08-03T08:24:22.912Z,2.2
2023-08-03T08:25:31.344Z,2.2
2023-08-03T08:26:39.652Z,2.2
2023-08-03T08:27:48.143Z,2.2
2023-08-03T08:29:03.851Z,2.2
2023-08-03T08:30:04.803Z,2.2
2023-08-03T08:31:13.345Z,2.2
2023-08-03T08:32:21.716Z,2.2
2023-08-03T08:33:30.011Z,2.2
2023-08-03T08:34:38.536Z,1.8
2023-08-03T08:35:46.848Z,1.8
2023-08-03T08:36:55.199Z,1.8
2023-08-03T08:38:03.736Z,1.8
2023-08-03T08:39:12.138Z,1.8
2023-08-03T08:40:20.400Z,1.8
2023-08-03T08:41:28.933Z,3.2
2023-08-03T08:42:37.300Z,3.2
2023-08-03T08:43:45.596Z,3.2
2023-08-03T08:44:54.141Z,2.4
2023-08-03T08:46:02.478Z,2.4
2023-08-03T08:47:10.903Z,2.4
2023-08-03T08:59:43.313Z,2.2
2023-08-03T09:00:51.657Z,2.2
2023-08-03T09:02:00.215Z,2.7
2023-08-03T09:03:08.619Z,2.7
2023-08-03T09:06:33.758Z,2.9
2023-08-03T09:07:42.124Z,2.9
2023-08-03T09:08:50.659Z,2.9
2023-08-03T09:09:58.967Z,2.9
2023-08-03T09:11:07.346Z,2.9
2023-08-03T09:12:15.909Z,3.5
2023-08-03T09:13:24.196Z,3.5
2023-08-03T09:14:32.777Z,3.5
2023-08-03T09:15:41.066Z,2
2023-08-03T09:16:49.461Z,2
2023-08-03T09:17:57.764Z,2
2023-08-03T09:19:06.286Z,2
2023-08-03T09:24:48.127Z,3.7
2023-08-03T09:25:56.652Z,3.8
2023-08-03T09:27:05.011Z,3.8
2023-08-03T09:29:24.708Z,2.4
2023-08-03T09:33:55.600Z,3.3
2023-08-03T09:35:03.877Z,3.3
2023-08-03T09:38:29.066Z,2.8
2023-08-03T09:39:37.584Z,3.5
2023-08-03T09:40:45.926Z,3.5
2023-08-03T09:43:02.959Z,3.3
2023-08-03T09:44:11.205Z,3.3
2023-08-03T09:46:28.156Z,2.6
2023-08-03T09:47:36.528Z,2.6
2023-08-03T09:49:53.375Z,3.9
2023-08-03T09:51:01.745Z,3.9
2023-08-03T09:52:10.228Z,3.9
2023-08-03T09:53:18.725Z,2.6
2023-08-03T09:54:27.103Z,2.6
2023-08-03T09:55:35.408Z,2.6
2023-08-03T09:56:43.986Z,3.4
2023-08-03T09:57:52.304Z,3.4
2023-08-03T09:59:00.657Z,3.4
2023-08-03T10:00:09.246Z,2.9
2023-08-03T10:01:17.577Z,2.9
2023-08-03T10:02:25.976Z,2.9
2023-08-03T10:03:34.544Z,2.8
2023-08-03T10:04:42.810Z,2.8
2023-08-03T10:05:51.144Z,2.8
2023-08-03T10:06:59.782Z,3.5
2023-08-03T10:08:08.032Z,3.5
2023-08-03T10:09:16.382Z,3.5
2023-08-03T10:10:24.992Z,1.3
2023-08-03T10:11:33.365Z,1.3
2023-08-03T10:12:41.727Z,1.3
2023-08-03T10:13:50.252Z,4.3
2023-08-03T10:14:58.577Z,4.3
2023-08-03T10:16:08.990Z,4.3
2023-08-03T10:17:19.310Z,2.1
2023-08-03T10:19:42.632Z,2.1
2023-08-03T10:20:51.197Z,1.9
2023-08-03T10:21:59.559Z,1.9
2023-08-03T10:23:07.920Z,1.9
2023-08-03T10:24:16.436Z,4.6
2023-08-03T10:25:25.413Z,4.6
2023-08-03T10:26:39.005Z,4.6
2023-08-03T10:27:47.808Z,2.5
2023-08-03T10:28:56.109Z,2.5
2023-08-03T10:30:04.455Z,2.5
2023-08-03T10:31:13.015Z,1.2
2023-08-03T10:32:21.381Z,1.2
2023-08-03T10:33:29.717Z,1.2
2023-08-03T10:34:38.283Z,2
2023-08-03T10:35:46.596Z,2
2023-08-03T10:36:55.058Z,2
2023-08-03T10:38:03.485Z,1.9
2023-08-03T10:39:11.827Z,1.9
2023-08-03T10:40:20.155Z,1.9
2023-08-03T10:41:28.691Z,2.3
2023-08-03T10:42:37.090Z,2.3
2023-08-03T10:43:45.388Z,2.3
2023-08-03T10:44:53.909Z,3.3
2023-08-03T10:46:02.364Z,3.3
2023-08-03T10:47:10.767Z,3.3
2023-08-03T10:48:19.316Z,2.5
2023-08-03T10:49:27.541Z,2.5
2023-08-03T10:50:35.860Z,2.5
2023-08-03T10:51:44.426Z,3.4
2023-08-03T10:52:52.794Z,3.4
2023-08-03T10:54:01.095Z,3.4
2023-08-03T10:55:09.694Z,1.5
2023-08-03T10:56:18.016Z,1.5
2023-08-03T10:57:26.440Z,1.5
2023-08-03T10:58:34.910Z,2
2023-08-03T10:59:44.473Z,2
2023-08-03T11:00:51.635Z,2
2023-08-03T11:02:00.186Z,1.8
2023-08-03T11:03:09.406Z,1.8
2023-08-03T11:04:17.669Z,1.8
2023-08-03T11:05:26.190Z,1.2
2023-08-03T11:06:34.503Z,1.2
2023-08-03T11:07:42.894Z,1.2
2023-08-03T11:08:51.427Z,1.7
2023-08-03T11:09:59.794Z,1.7
2023-08-03T11:11:08.178Z,1.7
2023-08-03T11:12:16.688Z,1.5
2023-08-03T11:13:25.018Z,1.5
2023-08-03T11:14:33.365Z,1.5
2023-08-03T11:15:41.931Z,1.3
2023-08-03T11:16:50.401Z,1.3
2023-08-03T11:17:58.613Z,1.3
2023-08-03T11:19:07.173Z,2.5
2023-08-03T11:20:15.529Z,2.5
2023-08-03T11:21:23.915Z,2.5
2023-08-03T11:22:33.657Z,1.3
2023-08-03T11:23:40.812Z,1.3
2023-08-03T11:24:49.119Z,1.3
2023-08-03T11:25:57.659Z,2.6
2023-08-03T11:27:06.059Z,2.6
2023-08-03T11:28:14.428Z,2.6
2023-08-03T11:29:22.971Z,1.6
2023-08-03T11:30:31.303Z,1.6
2023-08-03T11:31:39.669Z,1.6
2023-08-03T11:32:48.229Z,2.5
2023-08-03T11:33:56.577Z,2.5
2023-08-03T11:35:05.109Z,2.5
2023-08-03T11:36:13.490Z,2.2
2023-08-03T11:37:21.805Z,2.2
2023-08-03T11:38:30.137Z,2.2
2023-08-03T11:39:38.714Z,1.5
2023-08-03T11:40:47.066Z,1.5
2023-08-03T11:41:55.432Z,1.5
2023-08-03T11:43:04.002Z,1.1
2023-08-03T11:44:12.361Z,1.1
2023-08-03T11:45:20.672Z,1.1
2023-08-03T11:46:29.498Z,1.5
2023-08-03T11:47:37.571Z,1.5
2023-08-03T11:48:45.893Z,1.5
2023-08-03T11:49:54.525Z,0.6
2023-08-03T11:51:02.806Z,0.6
2023-08-03T11:52:11.163Z,0.6
2023-08-03T11:53:19.838Z,2.2
2023-08-03T11:54:28.082Z,2.2
2023-08-03T11:55:36.506Z,2.2
2023-08-03T11:56:45.212Z,3.2
2023-08-03T11:57:53.629Z,3.2
2023-08-03T11:59:01.728Z,3.2
2023-08-03T12:00:10.344Z,3.2
2023-08-03T12:01:18.597Z,3.2
2023-08-03T12:02:27.024Z,3.2
2023-08-03T12:03:35.530Z,2.5
2023-08-03T12:05:57.403Z,2.5
2023-08-03T12:08:17.005Z,1.4
2023-08-03T12:09:25.378Z,1.4
2023-08-03T12:10:33.944Z,1.9
2023-08-03T12:11:42.375Z,1.9
2023-08-03T12:12:50.637Z,1.9
2023-08-03T12:13:59.135Z,0.9
2023-08-03T12:15:07.532Z,0.9
2023-08-03T12:16:15.855Z,0.9
2023-08-03T12:17:24.376Z,1.3
2023-08-03T12:18:32.738Z,1.3
2023-08-03T12:19:41.072Z,1.3
2023-08-03T12:20:49.611Z,1.4
2023-08-03T12:21:58.060Z,1.4
2023-08-03T12:23:06.366Z,1.4
2023-08-03T12:24:14.911Z,2.5
2023-08-03T12:25:23.303Z,2.5
2023-08-03T12:26:31.608Z,2.5
2023-08-03T12:27:40.163Z,1.8
2023-08-03T12:28:48.513Z,1.8
2023-08-03T12:29:56.819Z,1.8
2023-08-03T12:31:05.412Z,1
2023-08-03T12:32:13.732Z,1
2023-08-03T12:33:22.137Z,1
2023-08-03T12:34:30.661Z,1.1
2023-08-03T12:35:38.995Z,1.1
2023-08-03T12:36:47.518Z,1.1
2023-08-03T12:37:58.684Z,1.7
2023-08-03T12:39:04.744Z,1.7
2023-08-03T12:40:12.643Z,1.7
2023-08-03T12:41:21.171Z,2.2
2023-08-03T12:42:29.537Z,2.2
2023-08-03T12:43:37.893Z,2.2
2023-08-03T12:44:46.419Z,1.5
2023-08-03T12:45:54.748Z,1.5
2023-08-03T12:47:08.311Z,1.5
2023-08-03T12:49:20.014Z,0.9
2023-08-03T12:50:28.400Z,0.9
2023-08-03T12:51:36.923Z,1.6
2023-08-03T12:52:45.265Z,1.6
2023-08-03T12:53:53.604Z,1.6
2023-08-03T12:55:02.171Z,0.9
2023-08-03T12:56:10.606Z,0.9
2023-08-03T12:57:18.855Z,0.9
2023-08-03T12:58:27.405Z,1.7
2023-08-03T12:59:35.745Z,1.7
2023-08-03T13:00:44.109Z,1.7
2023-08-03T13:01:52.728Z,1.9
2023-08-03T13:03:01.025Z,1.9
2023-08-03T13:04:09.345Z,1.9
2023-08-03T13:05:17.939Z,1.2
2023-08-03T13:06:26.218Z,1.2
2023-08-03T13:07:34.566Z,1.2
2023-08-03T13:08:43.131Z,2.4
2023-08-03T13:09:51.481Z,2.4
2023-08-03T13:10:59.872Z,2.4
2023-08-03T13:12:08.394Z,1.1
2023-08-03T13:13:16.712Z,1.1
2023-08-03T13:14:25.111Z,1.1
2023-08-03T13:15:33.628Z,1.3
2023-08-03T13:16:42.019Z,1.3
2023-08-03T13:17:50.445Z,1.3
2023-08-03T13:18:59.001Z,1.5
2023-08-03T13:20:07.306Z,1.5
2023-08-03T13:21:15.633Z,1.5
2023-08-03T13:22:24.205Z,1.1
2023-08-03T13:23:32.559Z,1.1
2023-08-03T13:24:40.905Z,1.1
2023-08-03T13:25:49.474Z,0.7
2023-08-03T13:26:57.797Z,0.7
2023-08-03T13:28:06.168Z,0.7
2023-08-03T13:29:14.762Z,0.6
2023-08-03T13:30:23.087Z,0.6
2023-08-03T13:31:31.446Z,0.6
2023-08-03T13:32:40.082Z,2
2023-08-03T13:33:48.363Z,2
2023-08-03T13:34:56.783Z,2
2023-08-03T13:36:05.239Z,1.7
2023-08-03T13:37:13.611Z,1.7
2023-08-03T13:38:21.957Z,1.7
2023-08-03T13:39:30.500Z,1.2
2023-08-03T13:40:38.857Z,1.2
2023-08-03T13:41:47.182Z,1.2
2023-08-03T13:42:55.756Z,2.7
2023-08-03T13:44:04.147Z,2.7
2023-08-03T13:45:12.480Z,2.7
2023-08-03T13:46:21.044Z,1.3
2023-08-03T13:47:29.401Z,1.3
2023-08-03T13:48:37.770Z,1.3
2023-08-03T13:49:50.379Z,0.8
2023-08-03T13:50:59.983Z,0.8
2023-08-03T13:52:05.661Z,0.8
2023-08-03T13:53:14.217Z,2.2
2023-08-03T13:54:22.534Z,2.2
2023-08-03T13:55:30.874Z,2.2
2023-08-03T13:56:39.491Z,3
2023-08-03T13:58:04.141Z,3
2023-08-03T13:58:56.218Z,3
2023-08-03T14:00:04.694Z,0.9
2023-08-03T14:01:14.593Z,0.9
2023-08-03T14:02:43.746Z,0.9
2023-08-03T14:04:38.555Z,1.4
2023-08-03T14:08:03.645Z,1.7
2023-08-03T14:09:12.615Z,1.7
2023-08-03T14:11:28.860Z,1.4
2023-08-03T14:14:54.008Z,1
2023-08-03T14:17:10.905Z,1.6
2023-08-03T14:19:27.637Z,1.6
2023-08-03T14:22:52.840Z,1.4
2023-08-03T14:24:02.088Z,1.6
2023-08-03T14:26:18.149Z,1.6
2023-08-03T14:27:26.640Z,1.3
2023-08-03T14:29:43.286Z,1.3
2023-08-03T14:30:51.866Z,0.9
2023-08-03T14:32:00.176Z,0.9
2023-08-03T14:33:08.631Z,0.9
2023-08-03T14:34:17.087Z,1.6
2023-08-03T14:36:33.800Z,1.6
2023-08-03T14:37:42.369Z,1.1
2023-08-03T14:38:50.711Z,1.1
2023-08-03T14:39:59.029Z,1.1
2023-08-03T14:41:07.589Z,1
2023-08-03T14:42:15.960Z,1
2023-08-03T14:43:24.333Z,1
2023-08-03T14:44:32.888Z,1.3
2023-08-03T14:46:49.599Z,1.3
2023-08-03T14:47:58.801Z,1.3
2023-08-03T14:52:31.759Z,1.2
2023-08-03T14:53:40.058Z,1.2
2023-08-03T14:54:48.626Z,0.7
2023-08-03T14:57:05.305Z,0.7
2023-08-03T14:58:13.845Z,0.6
2023-08-03T14:59:22.177Z,0.6
2023-08-03T15:00:30.608Z,0.6
2023-08-03T15:01:39.121Z,1.3
2023-08-03T15:02:47.519Z,1.3
2023-08-03T15:03:55.930Z,1.3
2023-08-03T15:05:04.516Z,0.8
2023-08-03T15:06:12.704Z,0.8
2023-08-03T15:07:20.998Z,0.8
2023-08-03T15:08:29.546Z,0.7
2023-08-03T15:09:37.942Z,0.7
2023-08-03T15:10:48.075Z,0.7
2023-08-03T15:11:55.377Z,1.1
2023-08-03T15:45:53.486Z,0
2023-08-03T15:47:23.865Z,0
2023-08-03T15:49:21.594Z,1.2
2023-08-03T15:50:27.507Z,1.2
2023-08-03T15:51:37.924Z,1.2
2023-08-03T15:53:58.647Z,2
2023-08-03T15:56:08.623Z,0.6
2023-08-03T15:57:17.018Z,0.6
2023-08-03T15:58:25.239Z,0.6
2023-08-03T15:59:33.774Z,1.6
2023-08-03T16:00:42.108Z,1.6
2023-08-03T16:01:50.565Z,1.6
2023-08-03T16:02:59.304Z,0.9
2023-08-03T16:04:07.601Z,0.9
2023-08-03T16:05:15.920Z,0.9
2023-08-03T16:06:24.428Z,1.1
2023-08-03T16:07:32.772Z,1.1
2023-08-03T16:08:41.107Z,1.1
2023-08-03T16:09:49.630Z,1.5
2023-08-03T16:10:57.976Z,1.5
2023-08-03T16:12:06.301Z,1.5
2023-08-03T16:13:14.850Z,1.9
2023-08-03T16:14:23.181Z,1.9
2023-08-03T16:15:31.510Z,1.9
2023-08-03T16:16:40.094Z,2.4
2023-08-03T16:17:48.442Z,2.4
2023-08-03T16:18:56.754Z,2.4
2023-08-03T16:20:05.315Z,0.9
2023-08-03T16:21:13.640Z,0.9
2023-08-03T16:22:21.995Z,0.9
2023-08-03T16:23:30.521Z,1.1
2023-08-03T16:24:38.880Z,1.1
2023-08-03T16:25:47.271Z,1.1
2023-08-03T16:26:55.755Z,2.8
2023-08-03T16:28:04.108Z,2.8
2023-08-03T16:29:12.447Z,2.8
2023-08-03T16:30:20.984Z,1.8
2023-08-03T16:31:29.353Z,1.8
2023-08-03T16:32:37.989Z,1.8
2023-08-03T16:33:46.398Z,0.7
2023-08-03T16:34:56.035Z,0.7
2023-08-03T16:36:02.926Z,0.7
2023-08-03T16:37:11.421Z,1.7
2023-08-03T16:38:19.750Z,1.7
2023-08-03T16:39:28.094Z,1.7
2023-08-03T16:40:36.650Z,3.3
2023-08-03T16:41:44.965Z,3.3
2023-08-03T16:42:53.435Z,3.3
2023-08-03T16:44:01.949Z,0.8
2023-08-03T16:45:10.295Z,0.8
2023-08-03T16:46:18.671Z,0.8
2023-08-03T16:47:27.293Z,0.6
2023-08-03T16:48:40.454Z,0.6
2023-08-03T16:49:43.923Z,0.6
2023-08-03T16:50:52.438Z,1.1
2023-08-03T16:52:00.805Z,1.1
2023-08-03T16:53:09.145Z,1.1
2023-08-03T16:54:17.722Z,0.7
2023-08-03T16:55:26.025Z,0.7
2023-08-03T16:56:34.354Z,0.7
2023-08-03T16:57:42.939Z,1.5
2023-08-03T16:58:51.260Z,1.5
2023-08-03T16:59:59.569Z,1.5
2023-08-03T17:01:08.152Z,1
2023-08-03T17:02:16.466Z,1
2023-08-03T17:03:24.868Z,1
2023-08-03T17:04:33.371Z,1.2
2023-08-03T17:05:41.795Z,1.2
2023-08-03T17:06:50.307Z,1.2
2023-08-03T17:07:58.759Z,1.3
2023-08-03T17:09:07.103Z,1.3
2023-08-03T17:10:15.474Z,1.3
2023-08-03T17:11:24.009Z,3
2023-08-03T17:12:34.445Z,3
2023-08-03T17:13:40.983Z,3
2023-08-03T17:14:49.525Z,0.7
2023-08-03T17:15:57.883Z,0.7
2023-08-03T17:17:06.268Z,0.7